Time;durP1;ratioP1;P1;durP2;ratioP2;P2;SDS_P1;SDS_P2;PMS_P1;PMS_P2;Temp;Humidity;BMP_temperature;BMP_pressure;BME280_temperature;BME280_humidity;BME280_pressure;Samples;Min_cycle;Max_cycle;Signal;HPM_P1;HPM_P2
2022/07/15 00:01:30;;;;;;;1.95;0.68;;;;;;;;;;6267511;22;20073;-53
2022/07/15 00:03:56;;;;;;;0.90;0.52;;;;;;;;;;6256351;22;20034;-54
2022/07/15 00:06:23;;;;;;;1.52;1.00;;;;;;;;;;6272370;22;20020;-52
2022/07/15 00:08:49;;;;;;;1.90;0.90;;;;;;;;;;6255389;22;20065;-51
2022/07/15 00:11:16;;;;;;;0.68;0.60;;;;;;;;;;6259718;22;20011;-52
2022/07/15 00:13:42;;;;;;;5.95;0.63;;;;;;;;;;6259438;22;20016;-50
2022/07/15 00:16:10;;;;;;;1.15;0.55;;;;;;;;;;6263292;22;20195;-53
2022/07/15 00:18:37;;;;;;;0.77;0.77;;;;;;;;;;6255906;22;20026;-54
2022/07/15 00:21:03;;;;;;;3.90;0.80;;;;;;;;;;6265493;22;20061;-54
2022/07/15 00:23:30;;;;;;;2.17;0.52;;;;;;;;;;6253496;22;20012;-52
2022/07/15 00:25:57;;;;;;;2.53;0.77;;;;;;;;;;6263080;22;20026;-54
2022/07/15 00:28:24;;;;;;;1.48;0.60;;;;;;;;;;6261648;22;20016;-53
2022/07/15 00:30:51;;;;;;;2.83;0.88;;;;;;;;;;6265917;22;20015;-53
2022/07/15 00:33:18;;;;;;;1.60;0.68;;;;;;;;;;6258843;22;20061;-54
2022/07/15 00:35:45;;;;;;;1.60;0.65;;;;;;;;;;6262630;22;20020;-52
2022/07/15 00:38:11;;;;;;;1.48;0.70;;;;;;;;;;6243111;22;20042;-52
2022/07/15 00:40:42;;;;;;;1.52;0.70;;;;;;;;;;6262147;22;20060;-51
2022/07/15 00:43:08;;;;;;;1.52;1.23;;;;;;;;;;6258674;22;20015;-53
2022/07/15 00:45:35;;;;;;;1.55;0.60;;;;;;;;;;6263998;22;20049;-54
2022/07/15 00:48:01;;;;;;;0.63;0.50;;;;;;;;;;6257132;22;20342;-50
2022/07/15 00:50:30;;;;;;;1.95;0.75;;;;;;;;;;6264369;22;20019;-53
2022/07/15 00:53:00;;;;;;;0.90;0.63;;;;;;;;;;6253260;22;20011;-54
2022/07/15 00:55:28;;;;;;;1.85;0.77;;;;;;;;;;6264968;22;20022;-54
2022/07/15 00:57:57;;;;;;;2.85;0.80;;;;;;;;;;6258755;22;20015;-53
2022/07/15 01:00:24;;;;;;;1.98;0.60;;;;;;;;;;6268791;22;20020;-55
2022/07/15 01:02:53;;;;;;;2.28;1.23;;;;;;;;;;6240026;22;20379;-54
2022/07/15 01:05:20;;;;;;;2.05;0.82;;;;;;;;;;6266378;22;20065;-54
2022/07/15 01:07:49;;;;;;;0.75;0.60;;;;;;;;;;6264596;22;20012;-53
2022/07/15 01:10:16;;;;;;;1.67;0.70;;;;;;;;;;6259363;22;20377;-54
2022/07/15 01:12:42;;;;;;;0.75;0.43;;;;;;;;;;6261465;22;20016;-54
2022/07/15 01:15:09;;;;;;;1.60;1.08;;;;;;;;;;6260852;22;20011;-54
2022/07/15 01:17:36;;;;;;;3.10;1.10;;;;;;;;;;6259766;22;20012;-50
2022/07/15 01:20:03;;;;;;;0.90;0.68;;;;;;;;;;6264298;22;20024;-55
2022/07/15 01:22:31;;;;;;;1.48;0.70;;;;;;;;;;6265088;22;20012;-52
2022/07/15 01:24:58;;;;;;;1.73;0.85;;;;;;;;;;6266631;22;20011;-54
2022/07/15 01:27:25;;;;;;;0.82;0.63;;;;;;;;;;6255885;22;20015;-55
2022/07/15 01:29:52;;;;;;;1.27;0.82;;;;;;;;;;6263426;22;20034;-55
2022/07/15 01:32:18;;;;;;;3.08;0.80;;;;;;;;;;6256658;22;20020;-54
2022/07/15 01:34:48;;;;;;;1.38;0.90;;;;;;;;;;6264451;22;20046;-52
2022/07/15 01:37:14;;;;;;;;;;;;;;;;;;6270143;22;20035;-53
2022/07/15 01:39:42;;;;;;;1.45;0.70;;;;;;;;;;6260839;22;19919;-51
2022/07/15 01:42:08;;;;;;;1.00;0.70;;;;;;;;;;6259732;22;20012;-53
2022/07/15 01:44:35;;;;;;;0.90;0.70;;;;;;;;;;6257107;22;20020;-53
2022/07/15 01:47:02;;;;;;;2.90;0.82;;;;;;;;;;6257500;22;20019;-52
2022/07/15 01:49:31;;;;;;;2.20;1.63;;;;;;;;;;6256084;22;20083;-51
2022/07/15 01:51:58;;;;;;;2.85;1.10;;;;;;;;;;6265141;22;20012;-53
2022/07/15 01:54:26;;;;;;;1.00;0.80;;;;;;;;;;6258930;22;20020;-52
2022/07/15 01:56:54;;;;;;;1.48;0.70;;;;;;;;;;6268844;22;20012;-53
2022/07/15 01:59:22;;;;;;;3.83;0.88;;;;;;;;;;6254790;22;20012;-55
2022/07/15 02:01:50;;;;;;;2.10;0.80;;;;;;;;;;6265992;22;20022;-54
2022/07/15 02:04:16;;;;;;;2.67;0.98;;;;;;;;;;6255639;22;20027;-54
2022/07/15 02:06:43;;;;;;;2.05;0.85;;;;;;;;;;6269436;22;20012;-53
2022/07/15 02:09:09;;;;;;;1.58;0.88;;;;;;;;;;6251881;22;20016;-54
2022/07/15 02:11:36;;;;;;;0.98;0.57;;;;;;;;;;6265794;22;20016;-55
2022/07/15 02:14:04;;;;;;;3.22;0.93;;;;;;;;;;6274625;22;20015;-53
2022/07/15 02:16:30;;;;;;;1.00;0.80;;;;;;;;;;6269382;22;20421;-53
2022/07/15 02:18:57;;;;;;;3.30;0.80;;;;;;;;;;6291993;22;20027;-55
2022/07/15 02:21:24;;;;;;;2.50;0.85;;;;;;;;;;6253439;22;20024;-54
2022/07/15 02:23:52;;;;;;;1.77;1.10;;;;;;;;;;6270443;22;20654;-55
2022/07/15 02:26:19;;;;;;;0.70;0.63;;;;;;;;;;6256426;22;20008;-52
2022/07/15 02:28:45;;;;;;;1.42;0.90;;;;;;;;;;6268788;22;20389;-53
2022/07/15 02:31:13;;;;;;;1.13;0.80;;;;;;;;;;6263161;22;20030;-54
2022/07/15 02:33:40;;;;;;;2.80;0.73;;;;;;;;;;6266123;22;20016;-54
2022/07/15 02:36:07;;;;;;;0.85;0.82;;;;;;;;;;6234253;22;20327;-52
2022/07/15 02:38:34;;;;;;;2.60;0.80;;;;;;;;;;6251952;22;20015;-55
2022/07/15 02:41:00;;;;;;;2.47;0.98;;;;;;;;;;6267673;22;20020;-52
2022/07/15 02:43:27;;;;;;;2.53;0.88;;;;;;;;;;6259519;22;20012;-54
2022/07/15 02:45:55;;;;;;;2.33;0.95;;;;;;;;;;6260280;22;20424;-53
2022/07/15 02:48:23;;;;;;;0.85;0.60;;;;;;;;;;6268230;22;20015;-52
2022/07/15 02:50:49;;;;;;;0.95;0.70;;;;;;;;;;6261910;22;20038;-53
2022/07/15 02:53:18;;;;;;;1.23;0.82;;;;;;;;;;6260353;22;20035;-53
2022/07/15 02:55:44;;;;;;;2.05;0.70;;;;;;;;;;6266503;22;20073;-54
2022/07/15 02:58:11;;;;;;;1.83;0.75;;;;;;;;;;6253157;22;20061;-57
2022/07/15 03:00:38;;;;;;;1.30;0.85;;;;;;;;;;6268703;22;20067;-56
2022/07/15 03:03:04;;;;;;;2.72;0.90;;;;;;;;;;6263639;22;20015;-53
2022/07/15 03:05:32;;;;;;;3.90;0.90;;;;;;;;;;6267586;22;20012;-56
2022/07/15 03:07:59;;;;;;;1.83;0.90;;;;;;;;;;6270319;22;20557;-54
2022/07/15 03:10:25;;;;;;;1.73;1.08;;;;;;;;;;6254741;22;20012;-53
2022/07/15 03:12:52;;;;;;;3.60;0.98;;;;;;;;;;6268873;22;20042;-50
2022/07/15 03:15:18;;;;;;;1.75;1.20;;;;;;;;;;6262031;22;20012;-51
2022/07/15 03:17:45;;;;;;;5.88;1.15;;;;;;;;;;6263700;22;20022;-55
2022/07/15 03:20:12;;;;;;;1.65;1.05;;;;;;;;;;6259803;22;20023;-54
2022/07/15 03:22:39;;;;;;;3.85;1.10;;;;;;;;;;6266236;22;20011;-55
2022/07/15 03:25:07;;;;;;;1.02;0.93;;;;;;;;;;6265964;22;20097;-54
2022/07/15 03:27:34;;;;;;;3.92;1.50;;;;;;;;;;6255056;22;20075;-54
2022/07/15 03:30:01;;;;;;;1.45;1.00;;;;;;;;;;6273470;22;20016;-51
2022/07/15 03:32:27;;;;;;;1.65;1.05;;;;;;;;;;6258001;22;20016;-54
2022/07/15 03:34:56;;;;;;;2.05;0.95;;;;;;;;;;6265137;22;20030;-52
2022/07/15 03:37:23;;;;;;;2.00;0.93;;;;;;;;;;6260482;22;20023;-55
2022/07/15 03:39:51;;;;;;;2.28;0.85;;;;;;;;;;6262069;22;20038;-54
2022/07/15 03:42:18;;;;;;;1.42;0.85;;;;;;;;;;6268721;22;20012;-53
2022/07/15 03:44:44;;;;;;;1.33;1.13;;;;;;;;;;6260977;22;20016;-53
2022/07/15 03:47:11;;;;;;;1.10;0.80;;;;;;;;;;6266228;22;20012;-55
2022/07/15 03:49:37;;;;;;;3.92;1.13;;;;;;;;;;6258742;22;20018;-54
2022/07/15 03:52:04;;;;;;;1.58;1.00;;;;;;;;;;6268270;22;20039;-55
2022/07/15 03:54:31;;;;;;;2.78;1.13;;;;;;;;;;6261550;22;20618;-56
2022/07/15 03:56:59;;;;;;;2.55;0.93;;;;;;;;;;6262195;22;20015;-53
2022/07/15 03:59:26;;;;;;;2.30;0.90;;;;;;;;;;6268285;22;20058;-53
2022/07/15 04:01:53;;;;;;;3.50;1.13;;;;;;;;;;6255184;22;20047;-53
2022/07/15 04:04:20;;;;;;;4.18;0.93;;;;;;;;;;6266603;22;20083;-54
2022/07/15 04:06:46;;;;;;;1.00;0.85;;;;;;;;;;6258484;22;20069;-58
2022/07/15 04:09:13;;;;;;;1.95;1.10;;;;;;;;;;6269300;22;20012;-57
2022/07/15 04:11:41;;;;;;;3.22;1.00;;;;;;;;;;6267239;22;20012;-57
2022/07/15 04:14:10;;;;;;;1.10;1.00;;;;;;;;;;6265865;22;20019;-58
2022/07/15 04:16:36;;;;;;;2.83;1.10;;;;;;;;;;6262341;22;20042;-56
2022/07/15 04:19:03;;;;;;;1.73;0.90;;;;;;;;;;6258397;22;20016;-56
2022/07/15 04:21:29;;;;;;;1.50;1.02;;;;;;;;;;6266522;22;20015;-56
2022/07/15 04:23:56;;;;;;;0.85;0.65;;;;;;;;;;6260494;22;20019;-56
2022/07/15 04:26:22;;;;;;;1.63;1.33;;;;;;;;;;6258862;22;20046;-56
2022/07/15 04:28:48;;;;;;;4.10;1.40;;;;;;;;;;6260432;22;20442;-57
2022/07/15 04:31:16;;;;;;;1.20;1.10;;;;;;;;;;6267035;22;20038;-58
2022/07/15 04:33:43;;;;;;;1.35;0.88;;;;;;;;;;6265175;22;20073;-56
2022/07/15 04:36:09;;;;;;;1.38;1.27;;;;;;;;;;6261847;22;20258;-57
2022/07/15 04:38:36;;;;;;;2.15;0.80;;;;;;;;;;6256694;22;20011;-58
2022/07/15 04:41:03;;;;;;;4.28;1.52;;;;;;;;;;6263673;22;20051;-55
2022/07/15 04:43:29;;;;;;;1.55;1.15;;;;;;;;;;6262077;22;20426;-55
2022/07/15 04:45:56;;;;;;;2.22;1.35;;;;;;;;;;6262774;22;20030;-54
2022/07/15 04:51:07;;;;;;;2.88;1.27;;;;;;;;;;6255831;22;20026;-55
2022/07/15 04:53:34;;;;;;;5.13;1.90;;;;;;;;;;6263624;22;20024;-57
2022/07/15 04:56:00;;;;;;;6.00;1.70;;;;;;;;;;6260638;22;20472;-58
2022/07/15 04:58:27;;;;;;;2.22;1.25;;;;;;;;;;6262722;22;20016;-55
2022/07/15 05:00:53;;;;;;;3.55;1.58;;;;;;;;;;6261959;22;20374;-57
2022/07/15 05:03:20;;;;;;;2.22;1.48;;;;;;;;;;6261484;22;20018;-57
2022/07/15 05:05:48;;;;;;;1.30;1.20;;;;;;;;;;6258821;22;20461;-56
2022/07/15 05:08:14;;;;;;;2.88;1.40;;;;;;;;;;6267073;22;20041;-57
2022/07/15 05:10:41;;;;;;;2.38;1.38;;;;;;;;;;6258819;22;20798;-57
2022/07/15 05:13:07;;;;;;;4.32;1.58;;;;;;;;;;6268079;22;20139;-56
2022/07/15 05:15:35;;;;;;;3.17;1.50;;;;;;;;;;6261929;22;20069;-58
2022/07/15 05:18:01;;;;;;;2.58;1.30;;;;;;;;;;6264545;22;20012;-55
2022/07/15 05:20:27;;;;;;;4.35;1.60;;;;;;;;;;6264611;22;20016;-58
2022/07/15 05:22:55;;;;;;;3.13;1.50;;;;;;;;;;6265784;22;20015;-56
2022/07/15 05:25:22;;;;;;;3.92;1.55;;;;;;;;;;6254008;22;20026;-56
2022/07/15 05:27:48;;;;;;;2.38;1.42;;;;;;;;;;6263679;22;20037;-55
2022/07/15 05:30:16;;;;;;;2.33;1.17;;;;;;;;;;6266386;22;20175;-56
2022/07/15 05:32:42;;;;;;;1.35;1.25;;;;;;;;;;6257651;22;20027;-57
2022/07/15 05:35:09;;;;;;;2.53;1.25;;;;;;;;;;6267119;22;20011;-58
2022/07/15 05:37:37;;;;;;;1.40;0.85;;;;;;;;;;6251169;22;20012;-57
2022/07/15 05:40:06;;;;;;;3.90;1.17;;;;;;;;;;6266103;22;20012;-56
2022/07/15 05:42:33;;;;;;;2.92;1.10;;;;;;;;;;6261833;22;20603;-57
2022/07/15 05:45:00;;;;;;;1.25;1.02;;;;;;;;;;6262007;22;20017;-57
2022/07/15 05:47:26;;;;;;;5.93;0.98;;;;;;;;;;6261053;22;20015;-54
2022/07/15 05:49:53;;;;;;;1.83;0.90;;;;;;;;;;6266145;22;20026;-58
2022/07/15 05:52:19;;;;;;;1.00;0.90;;;;;;;;;;6260112;22;20015;-56
2022/07/15 05:54:46;;;;;;;2.70;1.23;;;;;;;;;;6268987;22;20022;-57
2022/07/15 05:57:14;;;;;;;4.40;1.15;;;;;;;;;;6256919;22;20016;-56
2022/07/15 05:59:40;;;;;;;3.25;1.25;;;;;;;;;;6264342;22;20011;-57
2022/07/15 06:02:07;;;;;;;1.65;1.17;;;;;;;;;;6259342;22;20019;-57
2022/07/15 06:04:34;;;;;;;1.55;1.35;;;;;;;;;;6267631;22;20073;-55
2022/07/15 06:07:00;;;;;;;2.35;1.33;;;;;;;;;;6253249;22;20038;-57
2022/07/15 06:09:27;;;;;;;3.33;1.52;;;;;;;;;;6266561;22;20016;-57
2022/07/15 06:11:53;;;;;;;2.80;1.20;;;;;;;;;;6264633;22;20016;-57
2022/07/15 06:14:22;;;;;;;5.20;1.17;;;;;;;;;;6260987;22;20481;-56
2022/07/15 06:16:48;;;;;;;4.30;1.27;;;;;;;;;;6253799;22;20015;-57
2022/07/15 06:19:14;;;;;;;3.65;1.40;;;;;;;;;;6265784;22;20217;-55
2022/07/15 06:21:41;;;;;;;2.50;1.60;;;;;;;;;;6259365;22;20023;-56
2022/07/15 06:24:08;;;;;;;2.78;1.05;;;;;;;;;;6263564;22;20062;-57
2022/07/15 06:26:34;;;;;;;3.38;1.40;;;;;;;;;;6259919;22;20058;-58
2022/07/15 06:29:01;;;;;;;1.48;1.35;;;;;;;;;;6257185;22;20022;-56
2022/07/15 06:31:29;;;;;;;2.10;1.05;;;;;;;;;;6265734;22;20023;-54
2022/07/15 06:33:58;;;;;;;5.50;1.17;;;;;;;;;;6254516;22;20027;-57
2022/07/15 06:36:25;;;;;;;;;;;;;;;;;;6264327;22;20095;-58
2022/07/15 06:38:51;;;;;;;1.60;1.20;;;;;;;;;;6251917;22;19953;-58
2022/07/15 06:41:19;;;;;;;1.80;1.17;;;;;;;;;;6247179;22;20019;-56
2022/07/15 06:43:45;;;;;;;1.60;0.95;;;;;;;;;;6255392;22;20015;-55
2022/07/15 06:46:13;;;;;;;4.43;1.17;;;;;;;;;;6264606;22;20130;-55
2022/07/15 06:48:41;;;;;;;2.05;0.90;;;;;;;;;;6263923;22;20531;-55
2022/07/15 06:51:08;;;;;;;5.30;1.15;;;;;;;;;;6259290;22;20022;-56
2022/07/15 06:53:41;;;;;;;3.00;0.80;;;;;;;;;;6221890;22;20016;-57
2022/07/15 06:56:13;;;;;;;5.85;1.83;;;;;;;;;;6191710;22;20367;-58
2022/07/15 06:58:44;;;;;;;2.90;1.10;;;;;;;;;;6197352;22;20046;-57
2022/07/15 07:01:11;;;;;;;5.55;1.10;;;;;;;;;;6235018;22;20024;-58
2022/07/15 07:03:38;;;;;;;2.20;0.98;;;;;;;;;;6253310;22;20012;-57
2022/07/15 07:06:06;;;;;;;1.00;0.93;;;;;;;;;;6252476;22;20471;-57
2022/07/15 07:08:33;;;;;;;2.15;1.00;;;;;;;;;;6264137;22;20012;-56
2022/07/15 07:11:00;;;;;;;5.13;1.00;;;;;;;;;;6261385;22;20011;-56
2022/07/15 07:13:27;;;;;;;1.25;1.05;;;;;;;;;;6257980;22;20012;-57
2022/07/15 07:15:54;;;;;;;3.00;0.80;;;;;;;;;;6218504;22;20359;-56
2022/07/15 07:18:21;;;;;;;3.70;1.00;;;;;;;;;;6242316;22;20052;-57
2022/07/15 07:20:47;;;;;;;2.22;0.90;;;;;;;;;;6255771;22;20026;-56
2022/07/15 07:23:15;;;;;;;2.97;0.80;;;;;;;;;;6267047;22;20529;-56
2022/07/15 07:25:42;;;;;;;1.95;1.13;;;;;;;;;;6235638;22;20046;-57
2022/07/15 07:28:08;;;;;;;6.15;0.80;;;;;;;;;;6236342;22;20012;-58
2022/07/15 07:30:35;;;;;;;4.15;1.15;;;;;;;;;;6227547;22;20015;-58
2022/07/15 07:33:03;;;;;;;2.38;1.05;;;;;;;;;;6223471;22;20012;-57
2022/07/15 07:35:29;;;;;;;1.15;1.02;;;;;;;;;;6245824;22;20052;-57
2022/07/15 07:37:56;;;;;;;1.60;0.77;;;;;;;;;;6258089;22;20539;-57
2022/07/15 07:40:24;;;;;;;2.08;1.00;;;;;;;;;;6268830;22;20369;-56
2022/07/15 07:42:51;;;;;;;4.00;0.95;;;;;;;;;;6261164;22;20082;-56
2022/07/15 07:45:17;;;;;;;1.48;0.80;;;;;;;;;;6262310;22;20011;-58
2022/07/15 07:47:44;;;;;;;1.23;1.13;;;;;;;;;;6264001;22;20019;-57
2022/07/15 07:50:11;;;;;;;2.97;0.65;;;;;;;;;;6257718;22;20016;-57
2022/07/15 07:52:37;;;;;;;3.92;0.82;;;;;;;;;;6264387;22;20038;-57
2022/07/15 07:55:04;;;;;;;3.28;0.90;;;;;;;;;;6260122;22;20077;-57
2022/07/15 07:57:32;;;;;;;2.10;0.80;;;;;;;;;;6251101;22;20020;-58
2022/07/15 07:59:59;;;;;;;4.20;1.08;;;;;;;;;;6260205;22;20103;-58
2022/07/15 08:02:26;;;;;;;2.92;0.70;;;;;;;;;;6257277;22;20030;-57
2022/07/15 08:04:52;;;;;;;0.70;0.70;;;;;;;;;;6258294;22;20425;-58
2022/07/15 08:07:19;;;;;;;3.47;1.08;;;;;;;;;;6266042;22;20038;-57
2022/07/15 08:09:45;;;;;;;7.53;1.00;;;;;;;;;;6252189;22;20042;-58
2022/07/15 08:12:12;;;;;;;2.58;1.08;;;;;;;;;;6244825;22;20147;-56
2022/07/15 08:14:40;;;;;;;2.03;1.25;;;;;;;;;;6254263;22;20012;-58
2022/07/15 08:17:06;;;;;;;3.13;1.05;;;;;;;;;;6254260;22;20045;-59
2022/07/15 08:19:33;;;;;;;3.83;0.93;;;;;;;;;;6252272;22;20063;-58
2022/07/15 08:21:59;;;;;;;1.17;0.85;;;;;;;;;;6255842;22;20094;-56
2022/07/15 08:24:26;;;;;;;3.75;1.00;;;;;;;;;;6254360;22;20348;-56
2022/07/15 08:26:52;;;;;;;3.55;0.80;;;;;;;;;;6247007;22;20078;-57
2022/07/15 08:29:19;;;;;;;1.35;0.90;;;;;;;;;;6258302;22;20016;-57
2022/07/15 08:31:47;;;;;;;6.68;1.02;;;;;;;;;;6257968;22;20353;-56
2022/07/15 08:34:13;;;;;;;3.08;0.70;;;;;;;;;;6224197;22;20080;-57
2022/07/15 08:36:40;;;;;;;2.30;0.98;;;;;;;;;;6253293;22;20015;-53
2022/07/15 08:39:07;;;;;;;3.17;0.82;;;;;;;;;;6257326;22;20018;-56
2022/07/15 08:41:35;;;;;;;1.70;0.80;;;;;;;;;;6259689;22;20046;-55
2022/07/15 08:44:02;;;;;;;2.33;0.60;;;;;;;;;;6260053;22;20446;-56
2022/07/15 08:46:29;;;;;;;1.13;0.65;;;;;;;;;;6257506;22;20042;-56
2022/07/15 08:48:59;;;;;;;2.67;0.80;;;;;;;;;;6256118;22;20045;-55
2022/07/15 08:51:26;;;;;;;1.45;0.60;;;;;;;;;;6258116;22;20011;-56
2022/07/15 08:53:53;;;;;;;1.83;1.10;;;;;;;;;;6259140;22;20369;-56
2022/07/15 08:56:19;;;;;;;4.60;0.98;;;;;;;;;;6252664;22;20012;-56
2022/07/15 08:58:46;;;;;;;2.20;0.80;;;;;;;;;;6261835;22;20011;-56
2022/07/15 09:01:13;;;;;;;5.18;0.85;;;;;;;;;;6247957;22;20023;-54
2022/07/15 09:03:39;;;;;;;0.70;0.55;;;;;;;;;;6264243;22;20019;-55
2022/07/15 09:06:08;;;;;;;0.68;0.60;;;;;;;;;;6267428;22;20071;-58
2022/07/15 09:08:35;;;;;;;1.33;0.60;;;;;;;;;;6258329;22;20018;-57
2022/07/15 09:11:01;;;;;;;2.40;0.70;;;;;;;;;;6267438;22;20083;-58
2022/07/15 09:13:30;;;;;;;0.88;0.60;;;;;;;;;;6262160;22;20534;-57
2022/07/15 09:15:57;;;;;;;0.63;0.50;;;;;;;;;;6257142;22;20042;-56
2022/07/15 09:18:24;;;;;;;1.25;0.80;;;;;;;;;;6259879;22;20226;-56
2022/07/15 09:20:51;;;;;;;1.02;0.45;;;;;;;;;;6260965;22;20023;-55
2022/07/15 09:23:29;;;;;;;1.23;0.55;;;;;;;;;;6266494;22;20043;-57
2022/07/15 09:25:56;;;;;;;1.15;0.90;;;;;;;;;;6266729;22;20016;-56
2022/07/15 09:28:35;;;;;;;0.85;0.60;;;;;;;;;;6252652;22;20016;-56
2022/07/15 09:33:45;;;;;;;0.80;0.80;;;;;;;;;;6249682;22;20072;-56
2022/07/15 09:36:13;;;;;;;1.33;0.60;;;;;;;;;;6265912;22;20012;-56
2022/07/15 09:38:43;;;;;;;2.10;1.00;;;;;;;;;;6249032;22;20015;-57
2022/07/15 09:41:14;;;;;;;2.28;1.02;;;;;;;;;;6263991;22;20047;-55
2022/07/15 09:43:45;;;;;;;3.13;0.90;;;;;;;;;;6256314;22;20016;-57
2022/07/15 09:46:12;;;;;;;0.80;0.70;;;;;;;;;;6262029;22;20023;-56
2022/07/15 09:48:42;;;;;;;2.58;0.75;;;;;;;;;;6268327;22;20020;-57
2022/07/15 09:51:09;;;;;;;0.68;0.40;;;;;;;;;;6255093;22;20015;-57
2022/07/15 09:53:36;;;;;;;3.10;0.93;;;;;;;;;;6265676;22;20066;-56
2022/07/15 09:56:04;;;;;;;3.22;0.98;;;;;;;;;;6255417;22;20531;-54
2022/07/15 09:58:33;;;;;;;0.88;0.57;;;;;;;;;;6260984;22;20020;-54
2022/07/15 10:01:00;;;;;;;1.67;0.75;;;;;;;;;;6265253;22;20038;-57
2022/07/15 10:03:26;;;;;;;1.88;0.90;;;;;;;;;;6252917;22;20089;-57
2022/07/15 10:05:54;;;;;;;0.70;0.70;;;;;;;;;;6264066;22;20334;-57
2022/07/15 10:08:21;;;;;;;2.10;0.60;;;;;;;;;;6241595;22;20012;-56
2022/07/15 10:10:50;;;;;;;2.80;1.05;;;;;;;;;;6258272;22;20565;-56
2022/07/15 10:13:23;;;;;;;0.98;0.93;;;;;;;;;;6254772;22;20016;-56
2022/07/15 10:15:56;;;;;;;3.28;1.10;;;;;;;;;;6244805;22;20023;-57
2022/07/15 10:18:33;;;;;;;1.05;0.70;;;;;;;;;;6255620;22;20049;-56
2022/07/15 10:21:06;;;;;;;5.28;0.98;;;;;;;;;;6257677;22;20024;-55
2022/07/15 10:23:39;;;;;;;1.50;0.70;;;;;;;;;;6257661;22;20103;-57
2022/07/15 10:26:16;;;;;;;1.10;0.55;;;;;;;;;;6256949;22;20016;-55
2022/07/15 10:28:50;;;;;;;1.73;0.90;;;;;;;;;;6255009;22;20023;-57
2022/07/15 10:31:18;;;;;;;1.67;1.00;;;;;;;;;;6253011;22;20012;-56
2022/07/15 10:34:00;;;;;;;3.08;1.00;;;;;;;;;;6257506;22;20012;-56
2022/07/15 10:36:26;;;;;;;2.15;0.93;;;;;;;;;;6263192;22;20022;-56
2022/07/15 10:39:03;;;;;;;1.02;0.82;;;;;;;;;;6256301;22;20506;-57
2022/07/15 10:41:48;;;;;;;1.70;0.90;;;;;;;;;;6261041;22;20012;-55
2022/07/15 10:44:16;;;;;;;1.05;0.60;;;;;;;;;;6256558;22;20399;-56
2022/07/15 10:46:42;;;;;;;1.10;0.80;;;;;;;;;;6262072;22;20063;-56
2022/07/15 10:49:27;;;;;;;2.25;0.95;;;;;;;;;;6260737;22;20012;-57
2022/07/15 10:51:54;;;;;;;0.90;0.70;;;;;;;;;;6265698;22;20011;-57
2022/07/15 10:54:41;;;;;;;2.63;1.33;;;;;;;;;;6261898;22;20011;-55
2022/07/15 10:57:07;;;;;;;1.08;0.90;;;;;;;;;;6258138;22;20012;-56
2022/07/15 10:59:37;;;;;;;2.65;0.82;;;;;;;;;;6258089;22;20525;-57
2022/07/15 11:02:15;;;;;;;1.45;0.57;;;;;;;;;;6264708;22;20423;-56
2022/07/15 11:04:42;;;;;;;2.28;1.10;;;;;;;;;;6263988;22;20015;-55
2022/07/15 11:07:28;;;;;;;2.47;1.30;;;;;;;;;;6259003;22;20071;-57
2022/07/15 11:09:56;;;;;;;3.47;0.90;;;;;;;;;;6259123;22;20011;-52
2022/07/15 11:12:23;;;;;;;0.93;0.85;;;;;;;;;;6261302;22;20016;-57
2022/07/15 11:14:53;;;;;;;1.38;0.70;;;;;;;;;;6261844;22;20022;-60
2022/07/15 11:17:21;;;;;;;3.05;1.05;;;;;;;;;;6263836;22;20738;-57
2022/07/15 11:19:49;;;;;;;3.10;0.95;;;;;;;;;;6262813;22;20073;-57
2022/07/15 11:22:17;;;;;;;2.33;1.00;;;;;;;;;;6265295;22;20015;-57
2022/07/15 11:24:43;;;;;;;2.70;1.20;;;;;;;;;;6263363;22;20015;-57
2022/07/15 11:27:10;;;;;;;2.58;1.08;;;;;;;;;;6266359;22;20026;-57
2022/07/15 11:29:44;;;;;;;3.40;1.30;;;;;;;;;;6257685;22;20487;-58
2022/07/15 11:32:12;;;;;;;2.15;1.05;;;;;;;;;;6267843;22;20011;-58
2022/07/15 11:34:42;;;;;;;2.45;1.00;;;;;;;;;;6251528;22;20042;-57
2022/07/15 11:37:11;;;;;;;4.93;1.08;;;;;;;;;;6264860;22;20031;-58
2022/07/15 11:39:37;;;;;;;1.58;1.00;;;;;;;;;;6254624;22;20008;-58
2022/07/15 11:44:48;;;;;;;0.88;0.80;;;;;;;;;;6269751;22;20076;-56
2022/07/15 11:47:17;;;;;;;2.05;1.00;;;;;;;;;;6258616;22;20039;-57
2022/07/15 11:49:44;;;;;;;1.23;1.00;;;;;;;;;;6265098;22;20456;-57
2022/07/15 11:52:12;;;;;;;2.55;0.93;;;;;;;;;;6258235;22;20011;-56
2022/07/15 11:54:40;;;;;;;5.60;1.23;;;;;;;;;;6264917;22;20011;-52
2022/07/15 11:57:07;;;;;;;2.88;1.10;;;;;;;;;;6246537;22;20016;-54
2022/07/15 11:59:34;;;;;;;1.88;0.88;;;;;;;;;;6265237;22;20016;-51
2022/07/15 12:02:01;;;;;;;2.95;1.10;;;;;;;;;;6252845;22;20098;-57
2022/07/15 12:04:29;;;;;;;2.53;1.20;;;;;;;;;;6265424;22;20016;-54
2022/07/15 12:06:56;;;;;;;3.50;1.02;;;;;;;;;;6259743;22;20519;-54
2022/07/15 12:09:22;;;;;;;3.08;1.08;;;;;;;;;;6246854;22;20307;-55
2022/07/15 12:11:49;;;;;;;2.67;1.25;;;;;;;;;;6245982;22;20466;-54
2022/07/15 12:14:19;;;;;;;3.70;1.20;;;;;;;;;;6233929;22;20012;-54
2022/07/15 12:16:46;;;;;;;2.55;1.42;;;;;;;;;;6250362;22;20019;-53
2022/07/15 12:19:14;;;;;;;2.58;1.23;;;;;;;;;;6264171;22;20057;-55
2022/07/15 12:21:43;;;;;;;3.58;1.20;;;;;;;;;;6260787;22;20093;-57
2022/07/15 12:24:11;;;;;;;5.40;1.40;;;;;;;;;;6256822;22;20300;-56
2022/07/15 12:26:44;;;;;;;9.75;1.83;;;;;;;;;;6256250;22;20269;-56
2022/07/15 12:29:12;;;;;;;2.83;1.50;;;;;;;;;;6262390;22;20016;-57
2022/07/15 12:31:39;;;;;;;3.20;1.58;;;;;;;;;;6259305;22;20377;-57
2022/07/15 12:34:06;;;;;;;3.60;1.40;;;;;;;;;;6260367;22;20015;-57
2022/07/15 12:36:34;;;;;;;2.03;1.30;;;;;;;;;;6256553;22;20012;-58
2022/07/15 12:39:18;;;;;;;3.95;1.35;;;;;;;;;;6254348;22;20023;-57
2022/07/15 12:41:45;;;;;;;4.93;1.13;;;;;;;;;;6254474;22;20022;-57
2022/07/15 12:44:12;;;;;;;1.95;1.35;;;;;;;;;;6254571;22;20460;-58
2022/07/15 12:46:59;;;;;;;6.30;1.50;;;;;;;;;;6260563;22;20016;-57
2022/07/15 12:49:45;;;;;;;3.40;1.55;;;;;;;;;;6242104;22;20024;-58
2022/07/15 12:52:16;;;;;;;3.33;1.38;;;;;;;;;;6257915;22;20022;-58
2022/07/15 12:54:44;;;;;;;1.75;1.30;;;;;;;;;;6256669;22;20015;-59
2022/07/15 12:57:19;;;;;;;2.10;1.63;;;;;;;;;;6247879;22;20256;-58
2022/07/15 12:59:53;;;;;;;2.83;1.05;;;;;;;;;;6255331;22;20695;-54
2022/07/15 13:02:19;;;;;;;1.65;1.25;;;;;;;;;;6257985;22;20356;-52
2022/07/15 13:04:46;;;;;;;4.47;1.42;;;;;;;;;;6260777;22;20024;-53
2022/07/15 13:07:12;;;;;;;4.60;1.67;;;;;;;;;;6230981;22;20015;-58
2022/07/15 13:09:39;;;;;;;3.65;1.50;;;;;;;;;;6251363;22;20293;-56
2022/07/15 13:12:08;;;;;;;1.75;1.10;;;;;;;;;;6208557;22;20418;-56
2022/07/15 13:14:35;;;;;;;3.65;1.83;;;;;;;;;;6208581;22;20450;-55
2022/07/15 13:17:02;;;;;;;3.20;1.48;;;;;;;;;;6252797;22;20015;-56
2022/07/15 13:19:28;;;;;;;2.00;1.73;;;;;;;;;;6251510;22;20477;-55
2022/07/15 13:21:55;;;;;;;2.08;1.35;;;;;;;;;;6251682;22;20776;-56
2022/07/15 13:24:21;;;;;;;2.30;1.58;;;;;;;;;;6255606;22;20027;-55
2022/07/15 13:26:48;;;;;;;1.42;1.30;;;;;;;;;;6246647;22;20076;-52
2022/07/15 13:29:16;;;;;;;4.15;1.77;;;;;;;;;;6223930;22;20337;-57
2022/07/15 13:31:42;;;;;;;3.78;1.85;;;;;;;;;;6205856;22;20026;-56
2022/07/15 13:34:09;;;;;;;3.03;1.80;;;;;;;;;;6259148;22;20012;-56
2022/07/15 13:36:36;;;;;;;4.35;1.70;;;;;;;;;;6264026;22;20038;-57
2022/07/15 13:39:02;;;;;;;3.45;1.85;;;;;;;;;;6258984;22;20358;-57
2022/07/15 13:41:29;;;;;;;2.97;1.70;;;;;;;;;;6267622;22;20034;-56
2022/07/15 13:43:57;;;;;;;4.70;1.92;;;;;;;;;;6258222;22;20354;-57
2022/07/15 13:46:25;;;;;;;1.85;1.48;;;;;;;;;;6264166;22;20016;-55
2022/07/15 13:48:51;;;;;;;2.30;1.88;;;;;;;;;;6255289;22;20012;-55
2022/07/15 13:51:23;;;;;;;2.08;1.48;;;;;;;;;;6261480;22;20012;-56
2022/07/15 13:53:49;;;;;;;1.67;1.48;;;;;;;;;;6255445;22;20031;-55
2022/07/15 13:56:16;;;;;;;6.22;2.20;;;;;;;;;;6266569;22;20602;-55
2022/07/15 13:58:43;;;;;;;2.45;1.67;;;;;;;;;;6255652;22;20022;-54
2022/07/15 14:01:09;;;;;;;4.47;1.90;;;;;;;;;;6239158;22;20034;-56
2022/07/15 14:03:37;;;;;;;3.22;1.67;;;;;;;;;;6256986;22;20026;-55
2022/07/15 14:06:03;;;;;;;3.75;1.67;;;;;;;;;;6268700;22;20019;-55
2022/07/15 14:08:30;;;;;;;3.78;2.03;;;;;;;;;;6258526;22;20574;-56
2022/07/15 14:10:56;;;;;;;7.15;2.90;;;;;;;;;;6264278;22;20046;-56
2022/07/15 14:13:23;;;;;;;4.75;1.98;;;;;;;;;;6267028;22;20019;-56
2022/07/15 14:15:50;;;;;;;5.03;2.55;;;;;;;;;;6263104;22;20038;-57
2022/07/15 14:18:16;;;;;;;3.33;1.98;;;;;;;;;;6262565;22;20016;-55
2022/07/15 14:20:46;;;;;;;3.97;1.92;;;;;;;;;;6199338;22;20499;-56
2022/07/15 14:23:12;;;;;;;2.85;1.90;;;;;;;;;;6266420;22;20011;-56
2022/07/15 14:25:39;;;;;;;3.88;1.75;;;;;;;;;;6263026;22;20012;-57
2022/07/15 14:28:05;;;;;;;2.80;1.95;;;;;;;;;;6266131;22;20020;-55
2022/07/15 14:30:36;;;;;;;4.78;2.35;;;;;;;;;;6271861;22;20016;-56
2022/07/15 14:33:03;;;;;;;2.92;1.60;;;;;;;;;;6267201;22;20019;-55
2022/07/15 14:35:29;;;;;;;4.70;2.05;;;;;;;;;;6261275;22;20011;-54
2022/07/15 14:37:57;;;;;;;4.55;1.80;;;;;;;;;;6262088;22;20016;-56
2022/07/15 14:40:23;;;;;;;2.55;1.83;;;;;;;;;;6264252;22;20016;-57
2022/07/15 14:42:50;;;;;;;5.25;2.03;;;;;;;;;;6262206;22;20011;-56
2022/07/15 14:45:17;;;;;;;3.60;1.73;;;;;;;;;;6269176;22;20034;-57
2022/07/15 14:47:43;;;;;;;4.13;1.88;;;;;;;;;;6260031;22;20016;-55
2022/07/15 14:50:10;;;;;;;3.15;1.80;;;;;;;;;;6265246;22;20038;-55
2022/07/15 14:52:36;;;;;;;4.32;1.77;;;;;;;;;;6257137;22;20011;-58
2022/07/15 14:55:05;;;;;;;4.30;1.85;;;;;;;;;;6264136;22;20022;-55